createdAt,value
2019-02-15T00:00:50.205Z,3.00
2019-02-15T00:03:40.884Z,2.90
2019-02-15T00:06:32.246Z,2.90
2019-02-15T00:09:23.787Z,2.80
2019-02-15T00:12:14.444Z,2.70
2019-02-15T00:15:04.384Z,2.70
2019-02-15T00:18:13.692Z,2.60
2019-02-15T00:21:13.220Z,2.60
2019-02-15T00:24:03.505Z,2.50
2019-02-15T00:26:54.004Z,2.40
2019-02-15T00:29:43.928Z,2.40
2019-02-15T00:32:34.405Z,2.30
2019-02-15T00:35:24.644Z,2.20
2019-02-15T00:38:15.553Z,2.10
2019-02-15T00:41:06.345Z,2.00
2019-02-15T00:43:57.696Z,2.00
2019-02-15T00:47:05.206Z,1.90
2019-02-15T00:50:22.324Z,1.90
2019-02-15T00:53:23.147Z,1.90
2019-02-15T00:56:45.147Z,1.90
2019-02-15T00:59:50.104Z,1.80
2019-02-15T01:03:00.644Z,1.80
2019-02-15T01:06:14.444Z,1.80
2019-02-15T01:09:21.869Z,1.70
2019-02-15T01:12:15.616Z,1.70
2019-02-15T01:15:06.484Z,1.60
2019-02-15T01:17:56.625Z,1.60
2019-02-15T01:20:47.926Z,1.60
2019-02-15T01:23:38.631Z,1.60
2019-02-15T01:26:53.760Z,1.70
2019-02-15T01:29:53.527Z,1.70
2019-02-15T01:32:58.765Z,1.80
2019-02-15T01:35:55.767Z,2.00
2019-02-15T01:39:04.065Z,2.00
2019-02-15T01:42:07.345Z,2.10
2019-02-15T01:45:06.824Z,2.20
2019-02-15T01:47:57.113Z,2.20
2019-02-15T01:50:49.285Z,2.30
2019-02-15T01:53:39.947Z,2.30
2019-02-15T01:56:29.469Z,2.40
2019-02-15T01:59:20.386Z,2.50
2019-02-15T02:02:10.836Z,2.60
2019-02-15T02:05:01.993Z,2.80
2019-02-15T02:07:52.018Z,3.00
2019-02-15T02:10:43.471Z,3.20
2019-02-15T02:13:34.005Z,3.50
2019-02-15T02:16:25.544Z,3.70
2019-02-15T02:19:15.805Z,3.90
2019-02-15T02:22:06.206Z,4.10
2019-02-15T02:24:56.790Z,4.20
2019-02-15T02:27:47.345Z,4.20
2019-02-15T02:30:38.006Z,4.30
2019-02-15T02:33:28.385Z,4.30
2019-02-15T02:36:19.125Z,4.40
2019-02-15T02:39:10.200Z,4.50
2019-02-15T02:42:00.565Z,4.50
2019-02-15T02:44:52.405Z,4.50
2019-02-15T02:47:42.665Z,4.50
2019-02-15T02:50:33.559Z,4.50
2019-02-15T02:53:24.223Z,4.50
2019-02-15T02:56:14.667Z,4.50
2019-02-15T03:02:30.613Z,4.50
2019-02-15T03:05:20.184Z,4.50
2019-02-15T03:08:11.283Z,4.40
2019-02-15T03:11:00.994Z,4.40
2019-02-15T03:13:51.035Z,4.40
2019-02-15T03:16:41.695Z,4.40
2019-02-15T03:19:32.240Z,4.30
2019-02-15T03:22:22.277Z,4.30
2019-02-15T03:25:12.693Z,4.30
2019-02-15T03:28:03.135Z,4.20
2019-02-15T03:30:53.376Z,4.10
2019-02-15T03:33:43.415Z,4.10
2019-02-15T03:36:46.055Z,4.00
2019-02-15T03:39:49.094Z,3.90
2019-02-15T03:42:39.377Z,3.90
2019-02-15T03:45:29.572Z,3.80
2019-02-15T03:48:20.434Z,3.80
2019-02-15T03:51:10.953Z,3.70
2019-02-15T03:54:01.362Z,3.70
2019-02-15T03:56:52.439Z,3.70
2019-02-15T03:59:43.451Z,3.70
2019-02-15T04:02:34.194Z,3.70
2019-02-15T04:05:23.895Z,3.70
2019-02-15T04:08:14.373Z,3.80
2019-02-15T04:11:04.076Z,3.80
2019-02-15T04:13:54.432Z,3.90
2019-02-15T04:16:44.273Z,3.90
2019-02-15T04:19:34.536Z,4.00
2019-02-15T04:22:24.679Z,4.00
2019-02-15T04:25:14.705Z,4.10
2019-02-15T04:28:05.712Z,4.10
2019-02-15T04:30:56.053Z,4.10
2019-02-15T04:33:47.133Z,4.10
2019-02-15T04:36:38.033Z,4.20
2019-02-15T04:39:28.261Z,4.20
2019-02-15T04:42:18.486Z,4.20
2019-02-15T04:45:09.393Z,4.20
2019-02-15T04:48:00.295Z,4.30
2019-02-15T04:50:50.528Z,4.30
2019-02-15T04:53:41.736Z,4.40
2019-02-15T04:56:32.014Z,4.40
2019-02-15T04:59:21.853Z,4.50
2019-02-15T05:02:12.734Z,4.50
2019-02-15T05:05:03.339Z,4.60
2019-02-15T05:07:53.873Z,4.70
2019-02-15T05:10:44.462Z,4.70
2019-02-15T05:13:35.432Z,4.70
2019-02-15T05:16:25.575Z,4.70
2019-02-15T05:19:16.434Z,4.70
2019-02-15T05:22:06.956Z,4.70
2019-02-15T05:24:58.372Z,4.70
2019-02-15T05:27:48.973Z,4.70
2019-02-15T05:30:39.333Z,4.70
2019-02-15T05:33:29.571Z,4.80
2019-02-15T05:36:20.094Z,4.70
2019-02-15T05:39:10.892Z,4.60
2019-02-15T05:42:00.733Z,4.50
2019-02-15T05:44:50.758Z,4.40
2019-02-15T05:47:41.273Z,4.30
2019-02-15T05:50:31.594Z,4.10
2019-02-15T05:53:22.365Z,4.10
2019-02-15T05:56:12.293Z,4.00
2019-02-15T05:59:02.974Z,4.00
2019-02-15T06:01:53.350Z,3.90
2019-02-15T06:04:43.613Z,3.90
2019-02-15T06:07:34.194Z,3.80
2019-02-15T06:10:24.253Z,3.80
2019-02-15T06:13:15.013Z,3.80
2019-02-15T06:16:05.373Z,3.80
2019-02-15T06:18:55.788Z,3.80
2019-02-15T06:21:46.754Z,3.80
2019-02-15T06:24:37.472Z,3.90
2019-02-15T06:27:28.093Z,4.00
2019-02-15T06:30:18.770Z,4.10
2019-02-15T06:33:09.833Z,4.20
2019-02-15T06:36:00.913Z,4.30
2019-02-15T06:38:50.853Z,4.30
2019-02-15T06:41:41.192Z,4.40
2019-02-15T06:44:32.232Z,4.40
2019-02-15T06:47:22.495Z,4.40
2019-02-15T06:50:13.075Z,4.40
2019-02-15T06:53:03.456Z,4.50
2019-02-15T06:55:54.622Z,4.50
2019-02-15T06:59:03.656Z,4.50
2019-02-15T07:02:02.494Z,4.50
2019-02-15T07:05:26.673Z,4.50
2019-02-15T07:08:16.892Z,4.60
2019-02-15T07:11:08.157Z,4.60
2019-02-15T07:13:58.654Z,4.70
2019-02-15T07:16:49.853Z,4.70
2019-02-15T07:19:40.252Z,4.80
2019-02-15T07:22:30.652Z,4.90
2019-02-15T07:25:20.893Z,5.00
2019-02-15T07:28:11.413Z,5.20
2019-02-15T07:31:01.359Z,5.30
2019-02-15T07:33:51.937Z,5.50
2019-02-15T07:36:42.693Z,5.60
2019-02-15T07:39:32.774Z,5.80
2019-02-15T07:42:23.046Z,6.00
2019-02-15T07:45:13.027Z,6.80
2019-02-15T07:48:03.020Z,7.70
2019-02-15T07:50:54.500Z,8.40
2019-02-15T07:53:44.950Z,9.10
2019-02-15T07:56:35.147Z,9.90
2019-02-15T07:59:25.221Z,10.30
2019-02-15T08:02:15.473Z,10.50
2019-02-15T08:05:06.290Z,10.10
2019-02-15T08:07:56.333Z,9.60
2019-02-15T08:10:46.414Z,9.50
2019-02-15T08:13:36.717Z,9.60
2019-02-15T08:16:27.452Z,9.80
2019-02-15T08:19:17.714Z,10.10
2019-02-15T08:22:07.957Z,10.30
2019-02-15T08:24:58.492Z,10.60
2019-02-15T08:27:49.075Z,10.40
2019-02-15T08:30:39.728Z,10.10
2019-02-15T08:33:31.133Z,9.80
2019-02-15T08:36:21.838Z,10.00
2019-02-15T08:39:12.793Z,10.10
2019-02-15T08:42:04.595Z,10.50
2019-02-15T08:44:55.293Z,10.70
2019-02-15T08:47:45.292Z,10.70
2019-02-15T08:50:35.433Z,10.30
2019-02-15T08:53:26.513Z,9.90
2019-02-15T08:56:16.877Z,9.80
2019-02-15T08:59:07.772Z,9.50
2019-02-15T09:02:05.332Z,9.50
2019-02-15T09:04:56.153Z,9.40
2019-02-15T09:07:46.533Z,10.10
2019-02-15T09:10:37.233Z,10.90
2019-02-15T09:13:28.030Z,11.00
2019-02-15T09:16:18.512Z,10.60
2019-02-15T09:19:08.513Z,10.80
2019-02-15T09:21:59.293Z,11.30
2019-02-15T09:24:49.874Z,11.20
2019-02-15T09:27:51.353Z,11.20
2019-02-15T09:30:41.874Z,11.50
2019-02-15T09:33:32.752Z,12.00
2019-02-15T09:36:23.653Z,11.60
2019-02-15T09:39:14.244Z,11.30
2019-02-15T09:42:05.373Z,11.30
2019-02-15T09:44:55.953Z,11.30
2019-02-15T09:47:47.013Z,11.40
2019-02-15T09:50:36.772Z,11.70
2019-02-15T09:53:27.072Z,11.90
2019-02-15T09:56:17.412Z,12.10
2019-02-15T09:59:07.772Z,12.10
2019-02-15T10:01:57.832Z,12.50
2019-02-15T10:04:48.114Z,12.80
2019-02-15T10:07:38.832Z,12.70
2019-02-15T10:10:29.373Z,13.10
2019-02-15T10:13:21.213Z,13.90
2019-02-15T10:16:11.761Z,14.80
2019-02-15T10:19:02.107Z,14.80
2019-02-15T10:21:52.398Z,15.70
2019-02-15T10:24:42.513Z,16.60
2019-02-15T10:27:32.573Z,17.50
2019-02-15T10:30:22.795Z,17.20
2019-02-15T10:33:12.983Z,16.70
2019-02-15T10:36:03.683Z,16.10
2019-02-15T10:38:54.152Z,15.50
2019-02-15T10:41:44.574Z,15.20
2019-02-15T10:44:35.093Z,15.40
2019-02-15T10:47:25.558Z,16.40
2019-02-15T10:50:17.089Z,17.60
2019-02-15T10:53:07.457Z,18.40
2019-02-15T10:55:57.693Z,19.00
2019-02-15T10:58:48.393Z,19.30
2019-02-15T11:01:38.875Z,19.50
2019-02-15T11:04:28.892Z,19.70
2019-02-15T11:07:19.634Z,20.10
2019-02-15T11:10:10.815Z,20.60
2019-02-15T11:13:03.055Z,21.10
2019-02-15T11:15:53.555Z,21.30
2019-02-15T11:18:45.293Z,21.90
2019-02-15T11:21:36.252Z,22.40
2019-02-15T11:24:26.832Z,23.20
2019-02-15T11:27:17.772Z,23.30
2019-02-15T11:30:11.133Z,23.60
2019-02-15T11:33:02.113Z,23.30
2019-02-15T11:35:52.273Z,23.30
2019-02-15T11:38:42.951Z,22.60
2019-02-15T11:41:33.374Z,22.10
2019-02-15T11:44:23.433Z,21.40
2019-02-15T11:47:13.697Z,20.70
2019-02-15T11:50:03.921Z,19.90
2019-02-15T11:52:54.513Z,19.10
2019-02-15T11:55:44.895Z,19.10
2019-02-15T11:58:36.770Z,18.90
2019-02-15T12:01:28.578Z,19.40
2019-02-15T12:04:21.079Z,20.20
2019-02-15T12:07:11.634Z,20.90
2019-02-15T12:10:02.813Z,21.40
2019-02-15T12:12:53.613Z,21.60
2019-02-15T12:15:44.257Z,21.60
2019-02-15T12:18:34.515Z,21.10
2019-02-15T12:21:25.081Z,20.90
2019-02-15T12:24:15.764Z,20.20
2019-02-15T12:27:06.173Z,20.20
2019-02-15T12:29:56.273Z,20.10
2019-02-15T12:32:46.493Z,20.40
2019-02-15T12:35:36.894Z,20.30
2019-02-15T12:38:26.707Z,20.40
2019-02-15T12:41:17.120Z,20.80
2019-02-15T12:44:07.793Z,21.20
2019-02-15T12:46:58.713Z,22.50
2019-02-15T12:49:48.593Z,24.00
2019-02-15T12:52:39.293Z,25.50
2019-02-15T12:55:29.633Z,26.50
2019-02-15T12:58:20.238Z,27.90
2019-02-15T13:01:10.076Z,28.00
2019-02-15T13:04:00.593Z,28.10
2019-02-15T13:06:51.134Z,29.10
2019-02-15T13:09:42.034Z,29.00
2019-02-15T13:12:32.294Z,29.80
2019-02-15T13:15:23.153Z,29.70
2019-02-15T13:18:13.874Z,30.20
2019-02-15T13:21:04.573Z,30.10
2019-02-15T13:23:55.472Z,29.80
2019-02-15T13:26:46.374Z,30.30
2019-02-15T13:29:37.535Z,30.00
2019-02-15T13:32:28.561Z,30.30
2019-02-15T13:35:19.774Z,30.00
2019-02-15T13:38:10.436Z,30.30
2019-02-15T13:41:01.093Z,30.80
2019-02-15T13:43:52.914Z,30.00
2019-02-15T13:46:43.136Z,30.90
2019-02-15T13:49:34.054Z,30.90
2019-02-15T13:52:24.436Z,30.80
2019-02-15T13:55:15.052Z,31.10
2019-02-15T13:58:05.378Z,31.00
2019-02-15T14:00:56.334Z,30.80
2019-02-15T14:03:47.248Z,30.90
2019-02-15T14:06:38.033Z,30.40
2019-02-15T14:09:28.135Z,29.80
2019-02-15T14:12:19.138Z,29.30
2019-02-15T14:15:10.065Z,28.90
2019-02-15T14:18:00.292Z,27.60
2019-02-15T14:20:51.071Z,26.30
2019-02-15T14:23:40.953Z,26.00
2019-02-15T14:26:30.890Z,26.20
2019-02-15T14:29:21.851Z,25.70
2019-02-15T14:32:12.733Z,25.30
2019-02-15T14:35:03.394Z,24.60
2019-02-15T14:37:53.376Z,24.20
2019-02-15T14:40:44.276Z,23.60
2019-02-15T14:43:34.672Z,23.20
2019-02-15T14:46:24.942Z,22.50
2019-02-15T14:49:17.532Z,21.80
2019-02-15T14:52:07.653Z,21.20
2019-02-15T14:54:58.148Z,20.90
2019-02-15T14:57:48.755Z,20.40
2019-02-15T15:00:39.274Z,19.80
2019-02-15T15:03:28.954Z,19.50
2019-02-15T15:06:19.889Z,19.10
2019-02-15T15:09:12.095Z,18.70
2019-02-15T15:12:02.214Z,18.20
2019-02-15T15:14:52.546Z,17.70
2019-02-15T15:17:43.914Z,17.30
2019-02-15T15:20:33.533Z,16.80
2019-02-15T15:23:23.959Z,16.60
2019-02-15T15:26:14.995Z,16.30
2019-02-15T15:29:06.196Z,16.00
2019-02-15T15:31:56.754Z,15.40
2019-02-15T15:34:48.077Z,14.80
2019-02-15T15:37:38.813Z,14.40
2019-02-15T15:40:30.039Z,14.00
2019-02-15T15:43:20.573Z,13.50
2019-02-15T15:46:10.513Z,13.10
2019-02-15T15:49:01.094Z,12.70
2019-02-15T15:51:51.654Z,12.20
2019-02-15T15:54:41.873Z,11.80
2019-02-15T15:57:33.074Z,11.50
2019-02-15T16:00:23.953Z,11.10
2019-02-15T16:03:14.330Z,10.80
2019-02-15T16:06:04.734Z,10.50
2019-02-15T16:08:54.823Z,10.20
2019-02-15T16:11:46.284Z,9.90
2019-02-15T16:14:36.867Z,9.60
2019-02-15T16:17:29.854Z,9.30
2019-02-15T16:20:21.373Z,9.10
2019-02-15T16:23:11.952Z,8.90
2019-02-15T16:26:02.254Z,8.60
2019-02-15T16:28:53.701Z,8.20
2019-02-15T16:31:44.658Z,7.90
2019-02-15T16:34:35.133Z,7.70
2019-02-15T16:37:25.776Z,7.50
2019-02-15T16:40:16.382Z,7.30
2019-02-15T16:43:06.873Z,7.10
2019-02-15T16:45:56.533Z,6.90
2019-02-15T16:48:47.193Z,6.70
2019-02-15T16:51:38.495Z,6.50
2019-02-15T16:54:29.412Z,6.40
2019-02-15T16:57:19.933Z,6.20
2019-02-15T17:00:11.074Z,6.00
2019-02-15T17:03:01.633Z,5.80
2019-02-15T17:05:51.756Z,5.70
2019-02-15T17:08:42.276Z,5.50
2019-02-15T17:11:32.761Z,5.40
2019-02-15T17:14:23.483Z,5.30
2019-02-15T17:17:13.957Z,5.10
2019-02-15T17:20:05.072Z,5.00
2019-02-15T17:22:55.323Z,4.90
2019-02-15T17:25:46.082Z,4.80
2019-02-15T17:30:06.939Z,4.70
2019-02-15T17:32:58.523Z,4.50
2019-02-15T17:35:49.066Z,4.40
2019-02-15T17:38:39.059Z,4.30
2019-02-15T17:41:29.793Z,4.20
2019-02-15T17:44:20.437Z,4.10
2019-02-15T17:47:11.213Z,4.10
2019-02-15T17:50:01.561Z,4.00
2019-02-15T17:52:52.135Z,4.00
2019-02-15T17:55:42.734Z,3.90
2019-02-15T17:58:33.459Z,3.80
2019-02-15T18:01:24.433Z,3.70
2019-02-15T18:04:15.153Z,3.60
2019-02-15T18:07:06.172Z,3.50
2019-02-15T18:09:56.115Z,3.40
2019-02-15T18:12:47.494Z,3.30
2019-02-15T18:15:38.245Z,3.30
2019-02-15T18:18:29.294Z,3.20
2019-02-15T18:21:19.926Z,3.10
2019-02-15T18:24:10.495Z,3.00
2019-02-15T18:27:01.373Z,3.00
2019-02-15T18:29:53.091Z,2.90
2019-02-15T18:32:43.494Z,2.80
2019-02-15T18:35:34.210Z,2.70
2019-02-15T18:38:25.959Z,2.60
2019-02-15T18:41:16.716Z,2.60
2019-02-15T18:44:08.745Z,2.50
2019-02-15T18:46:59.273Z,2.40
2019-02-15T18:49:49.251Z,2.30
2019-02-15T18:52:39.771Z,2.20
2019-02-15T18:55:29.742Z,2.20
2019-02-15T18:58:19.779Z,2.10
2019-02-15T19:01:10.362Z,2.00
2019-02-15T19:04:00.576Z,2.00
2019-02-15T19:06:51.741Z,1.90
2019-02-15T19:09:42.372Z,1.80
2019-02-15T19:12:32.795Z,1.70
2019-02-15T19:15:23.276Z,1.70
2019-02-15T19:18:13.875Z,1.60
2019-02-15T19:21:04.112Z,1.50
2019-02-15T19:23:54.522Z,1.40
2019-02-15T19:26:44.732Z,1.40
2019-02-15T19:29:35.833Z,1.30
2019-02-15T19:32:26.118Z,1.30
2019-02-15T19:35:16.992Z,1.20
2019-02-15T19:38:07.936Z,1.20
2019-02-15T19:40:59.833Z,1.10
2019-02-15T19:43:49.596Z,1.10
2019-02-15T19:46:41.155Z,1.00
2019-02-15T19:49:38.521Z,0.90
2019-02-15T19:52:28.073Z,0.90
2019-02-15T19:55:19.753Z,0.80
2019-02-15T19:58:10.720Z,0.80
2019-02-15T20:01:01.373Z,0.70
2019-02-15T20:03:52.326Z,0.70
2019-02-15T20:06:42.373Z,0.60
2019-02-15T20:09:32.737Z,0.60
2019-02-15T20:12:22.974Z,0.50
2019-02-15T20:15:13.998Z,0.50
2019-02-15T20:18:03.974Z,0.50
2019-02-15T20:20:55.313Z,0.50
2019-02-15T20:23:45.332Z,0.40
2019-02-15T20:26:38.034Z,0.40
2019-02-15T20:29:29.433Z,0.40
2019-02-15T20:32:20.733Z,0.40
2019-02-15T20:35:14.095Z,0.30
2019-02-15T20:38:05.397Z,0.30
2019-02-15T20:40:56.174Z,0.30
2019-02-15T20:43:46.676Z,0.30
2019-02-15T20:46:37.732Z,0.30
2019-02-15T20:49:27.952Z,0.20
2019-02-15T20:52:18.530Z,0.20
2019-02-15T20:55:09.993Z,0.10
2019-02-15T20:58:00.592Z,0.10
2019-02-15T21:00:51.472Z,0.00
2019-02-15T21:03:41.523Z,-0.10
2019-02-15T21:06:33.674Z,-0.10
2019-02-15T21:09:24.146Z,-0.20
2019-02-15T21:12:14.565Z,-0.30
2019-02-15T21:15:04.861Z,-0.30
2019-02-15T21:17:56.532Z,-0.30
2019-02-15T21:20:47.055Z,-0.40
2019-02-15T21:23:38.374Z,-0.40
2019-02-15T21:26:31.306Z,-0.40
2019-02-15T21:29:22.635Z,-0.40
2019-02-15T21:32:13.132Z,-0.40
2019-02-15T21:35:05.373Z,-0.50
2019-02-15T21:37:55.712Z,-0.50
2019-02-15T21:40:46.291Z,-0.50
2019-02-15T21:43:36.615Z,-0.50
2019-02-15T21:46:26.992Z,-0.60
2019-02-15T21:49:16.873Z,-0.60
2019-02-15T21:52:07.389Z,-0.60
2019-02-15T21:54:58.235Z,-0.70
2019-02-15T21:57:48.541Z,-0.70
2019-02-15T22:00:39.313Z,-0.70
2019-02-15T22:03:29.442Z,-0.70
2019-02-15T22:06:19.952Z,-0.70
2019-02-15T22:09:10.933Z,-0.70
2019-02-15T22:12:01.553Z,-0.80
2019-02-15T22:14:52.197Z,-0.80
2019-02-15T22:17:42.376Z,-0.80
2019-02-15T22:20:32.952Z,-0.80
2019-02-15T22:23:22.853Z,-0.80
2019-02-15T22:26:13.013Z,-0.80
2019-02-15T22:29:03.052Z,-0.70
2019-02-15T22:31:53.185Z,-0.70
2019-02-15T22:34:43.937Z,-0.70
2019-02-15T22:37:34.551Z,-0.60
2019-02-15T22:40:30.035Z,-0.70
2019-02-15T22:43:23.612Z,-0.60
2019-02-15T22:46:14.652Z,-0.60
2019-02-15T22:49:05.054Z,-0.70
2019-02-15T22:51:55.772Z,-0.70
2019-02-15T22:54:47.094Z,-0.70
2019-02-15T22:57:37.092Z,-0.70
2019-02-15T23:00:47.149Z,-0.80
2019-02-15T23:03:37.232Z,-0.80
2019-02-15T23:06:28.023Z,-0.80
2019-02-15T23:09:36.696Z,-0.80
2019-02-15T23:12:27.513Z,-0.80
2019-02-15T23:15:17.606Z,-0.80
2019-02-15T23:18:07.932Z,-0.80
2019-02-15T23:20:58.632Z,-0.80
2019-02-15T23:23:49.775Z,-0.80
2019-02-15T23:26:39.954Z,-0.80
2019-02-15T23:29:30.873Z,-0.90
2019-02-15T23:32:21.575Z,-0.90
2019-02-15T23:35:11.918Z,-0.90
2019-02-15T23:38:04.054Z,-0.90
2019-02-15T23:40:54.216Z,-1.00
2019-02-15T23:43:44.021Z,-1.00
2019-02-15T23:46:34.213Z,-1.00
2019-02-15T23:49:25.072Z,-1.00
2019-02-15T23:52:14.954Z,-1.10
2019-02-15T23:55:05.553Z,-1.10
2019-02-15T23:57:55.793Z,-1.10
